Time;durP1;ratioP1;P1;durP2;ratioP2;P2;SDS_P1;SDS_P2;PMS_P1;PMS_P2;Temp;Humidity;BMP_temperature;BMP_pressure;BME280_temperature;BME280_humidity;BME280_pressure;Samples;Min_cycle;Max_cycle;Signal;HPM_P1;HPM_P2
2023/03/12 00:01:23;;;;;;;6.80;3.40;;;;;;;;;;6250834;22;20468;-88
2023/03/12 00:03:49;;;;;;;5.32;2.85;;;;;;;;;;6273956;22;20090;-88
2023/03/12 00:06:24;;;;;;;13.00;3.30;;;;;;;;;;6278213;22;20027;-88
2023/03/12 00:08:51;;;;;;;10.65;3.00;;;;;;;;;;6277754;22;20007;-88
2023/03/12 00:11:18;;;;;;;13.43;3.60;;;;;;;;;;6252551;22;20008;-88
2023/03/12 00:13:53;;;;;;;8.60;3.85;;;;;;;;;;6277808;22;20003;-88
2023/03/12 00:16:24;;;;;;;8.18;2.85;;;;;;;;;;6253276;22;20039;-88
2023/03/12 00:18:51;;;;;;;5.47;3.40;;;;;;;;;;6279227;22;20012;-88
2023/03/12 00:21:26;;;;;;;18.88;3.20;;;;;;;;;;6257875;22;20110;-88
2023/03/12 00:23:56;;;;;;;11.23;3.05;;;;;;;;;;6308889;22;20014;-89
2023/03/12 00:26:22;;;;;;;11.52;3.83;;;;;;;;;;6279549;22;20086;-88
2023/03/12 00:28:52;;;;;;;11.30;3.25;;;;;;;;;;6309175;22;20003;-88
2023/03/12 00:31:23;;;;;;;11.00;3.28;;;;;;;;;;6311177;22;20043;-89
2023/03/12 00:33:49;;;;;;;6.35;2.60;;;;;;;;;;6309441;22;20533;-88
2023/03/12 00:36:20;;;;;;;12.10;2.90;;;;;;;;;;6310058;22;20011;-88
2023/03/12 00:38:46;;;;;;;10.93;3.13;;;;;;;;;;6282866;22;20010;-87
2023/03/12 00:41:12;;;;;;;8.40;2.65;;;;;;;;;;6309428;22;20011;-89
2023/03/12 00:43:46;;;;;;;7.68;2.90;;;;;;;;;;6257667;22;20326;-88
2023/03/12 00:46:13;;;;;;;5.65;2.85;;;;;;;;;;6309278;22;20009;-89
2023/03/12 00:48:40;;;;;;;12.00;3.72;;;;;;;;;;6310174;22;20515;-88
2023/03/12 00:51:06;;;;;;;8.02;2.75;;;;;;;;;;6307901;22;20007;-89
2023/03/12 00:53:32;;;;;;;9.10;3.08;;;;;;;;;;6308138;22;20042;-89
2023/03/12 00:56:09;;;;;;;12.15;3.17;;;;;;;;;;6309821;22;20011;-89
2023/03/12 00:58:52;;;;;;;12.73;3.20;;;;;;;;;;6306479;22;20091;-88
2023/03/12 01:01:19;;;;;;;16.08;2.97;;;;;;;;;;6255051;22;20023;-88
2023/03/12 01:03:45;;;;;;;8.95;3.20;;;;;;;;;;6308893;22;20004;-88
2023/03/12 01:06:12;;;;;;;5.70;2.85;;;;;;;;;;6306840;22;20010;-89
2023/03/12 01:08:44;;;;;;;9.05;3.28;;;;;;;;;;6305678;22;20003;-88
2023/03/12 01:11:14;;;;;;;7.45;3.35;;;;;;;;;;6309784;22;20030;-88
2023/03/12 01:13:43;;;;;;;6.95;3.70;;;;;;;;;;6309161;22;20014;-88
2023/03/12 01:16:14;;;;;;;5.95;3.17;;;;;;;;;;6308732;22;20090;-89
2023/03/12 01:18:41;;;;;;;13.05;3.63;;;;;;;;;;6255926;22;20615;-88
2023/03/12 01:21:20;;;;;;;8.57;3.35;;;;;;;;;;6255248;22;20038;-88
2023/03/12 01:23:49;;;;;;;11.00;3.17;;;;;;;;;;6256900;22;20014;-89
2023/03/12 01:26:17;;;;;;;14.38;3.58;;;;;;;;;;6248435;22;20018;-89
2023/03/12 01:28:46;;;;;;;8.30;3.08;;;;;;;;;;6306605;22;20376;-88
2023/03/12 01:31:15;;;;;;;9.45;4.20;;;;;;;;;;6307594;22;20000;-88
2023/03/12 01:33:49;;;;;;;8.18;3.30;;;;;;;;;;6307907;22;20007;-87
2023/03/12 01:36:25;;;;;;;9.10;3.70;;;;;;;;;;6308145;22;20010;-88
2023/03/12 01:38:52;;;;;;;8.43;4.10;;;;;;;;;;6306085;22;20283;-88
2023/03/12 01:41:21;;;;;;;7.32;4.07;;;;;;;;;;6306817;22;20003;-87
2023/03/12 01:43:51;;;;;;;12.80;3.80;;;;;;;;;;6281459;22;20014;-87
2023/03/12 01:46:34;;;;;;;12.02;4.18;;;;;;;;;;6308342;22;20003;-88
2023/03/12 01:49:21;;;;;;;17.67;4.00;;;;;;;;;;6305946;22;20011;-87
2023/03/12 01:52:09;;;;;;;5.03;3.65;;;;;;;;;;6306773;22;20487;-88
2023/03/12 01:54:37;;;;;;;12.88;4.07;;;;;;;;;;6307626;22;20311;-87
2023/03/12 01:57:05;;;;;;;20.48;4.40;;;;;;;;;;6308271;22;20451;-89
2023/03/12 01:59:51;;;;;;;15.20;3.90;;;;;;;;;;6308457;22;20007;-88
2023/03/12 02:02:22;;;;;;;;;;;;;;;;;;6307647;22;20007;-88
2023/03/12 02:04:53;;;;;;;12.02;3.70;;;;;;;;;;6280589;22;19917;-88
2023/03/12 02:07:19;;;;;;;21.30;3.92;;;;;;;;;;6307645;22;20074;-88
2023/03/12 02:09:47;;;;;;;7.68;3.65;;;;;;;;;;6255408;22;20007;-88
2023/03/12 02:12:15;;;;;;;5.40;3.17;;;;;;;;;;6307980;22;20074;-87
2023/03/12 02:14:41;;;;;;;7.10;3.60;;;;;;;;;;6306697;22;20089;-88
2023/03/12 02:17:14;;;;;;;13.40;3.42;;;;;;;;;;6308115;22;20067;-87
2023/03/12 02:19:44;;;;;;;6.90;3.78;;;;;;;;;;6282956;22;20186;-88
2023/03/12 02:22:18;;;;;;;8.05;3.40;;;;;;;;;;6307887;22;20479;-88
2023/03/12 02:24:57;;;;;;;6.32;2.75;;;;;;;;;;6282009;22;20037;-88
2023/03/12 02:27:23;;;;;;;6.15;3.08;;;;;;;;;;6282631;22;20056;-86
2023/03/12 02:29:53;;;;;;;10.80;3.45;;;;;;;;;;6309469;22;19996;-87
2023/03/12 02:32:26;;;;;;;8.98;3.28;;;;;;;;;;6255734;22;20415;-88
2023/03/12 02:34:52;;;;;;;12.73;3.85;;;;;;;;;;6256686;22;20098;-88
2023/03/12 02:37:22;;;;;;;16.00;2.80;;;;;;;;;;6282414;22;20035;-87
2023/03/12 02:40:00;;;;;;;9.57;3.50;;;;;;;;;;6282704;22;20007;-87
2023/03/12 02:42:32;;;;;;;12.00;2.05;;;;;;;;;;6310817;22;20056;-88
2023/03/12 02:45:13;;;;;;;6.07;2.58;;;;;;;;;;6306838;22;20015;-88
2023/03/12 02:47:45;;;;;;;9.38;2.38;;;;;;;;;;6255960;22;20023;-88
2023/03/12 02:50:12;;;;;;;9.18;3.17;;;;;;;;;;6252389;22;20023;-88
2023/03/12 02:52:39;;;;;;;10.32;2.97;;;;;;;;;;6255129;22;20407;-88
2023/03/12 02:55:15;;;;;;;8.77;3.20;;;;;;;;;;6253341;22;20008;-87
2023/03/12 02:57:42;;;;;;;8.98;3.80;;;;;;;;;;6278865;22;20411;-88
2023/03/12 03:00:11;;;;;;;11.27;3.30;;;;;;;;;;6279744;22;19995;-87
2023/03/12 03:02:37;;;;;;;7.35;2.40;;;;;;;;;;6281000;22;20400;-86
2023/03/12 03:05:04;;;;;;;13.32;3.05;;;;;;;;;;6283243;22;20007;-87
2023/03/12 03:07:33;;;;;;;7.93;3.20;;;;;;;;;;6255659;22;20007;-88
2023/03/12 03:10:20;;;;;;;9.88;3.67;;;;;;;;;;6254646;22;20007;-88
2023/03/12 03:12:50;;;;;;;8.27;3.08;;;;;;;;;;6303930;22;20007;-88
2023/03/12 03:15:16;;;;;;;12.07;3.60;;;;;;;;;;6253014;22;20011;-88
2023/03/12 03:17:46;;;;;;;10.27;4.50;;;;;;;;;;6253397;22;20015;-88
2023/03/12 03:20:15;;;;;;;8.27;4.93;;;;;;;;;;6252837;22;20011;-88
2023/03/12 03:22:43;;;;;;;12.32;5.93;;;;;;;;;;6255373;22;20480;-89
2023/03/12 03:25:16;;;;;;;12.05;5.78;;;;;;;;;;6254755;22;20369;-87
2023/03/12 03:27:47;;;;;;;9.20;5.32;;;;;;;;;;6279154;22;20011;-87
2023/03/12 03:30:15;;;;;;;6.38;3.80;;;;;;;;;;6254809;22;20034;-87
2023/03/12 03:32:54;;;;;;;16.30;3.75;;;;;;;;;;6305015;22;20086;-88
2023/03/12 03:35:23;;;;;;;7.10;3.25;;;;;;;;;;6306120;22;20008;-87
2023/03/12 03:37:56;;;;;;;8.82;2.63;;;;;;;;;;6306755;22;20017;-88
2023/03/12 03:40:22;;;;;;;10.70;2.92;;;;;;;;;;6308105;22;20002;-89
2023/03/12 03:42:48;;;;;;;7.82;2.83;;;;;;;;;;6253005;22;20019;-89
2023/03/12 03:45:18;;;;;;;6.47;3.15;;;;;;;;;;6279913;22;20074;-89
2023/03/12 03:47:53;;;;;;;6.22;2.97;;;;;;;;;;6303671;22;20082;-88
2023/03/12 03:50:19;;;;;;;8.03;2.93;;;;;;;;;;6304624;22;20003;-89
2023/03/12 03:52:48;;;;;;;6.95;3.10;;;;;;;;;;6305793;22;20007;-86
2023/03/12 03:55:14;;;;;;;11.15;3.20;;;;;;;;;;6254882;22;20007;-89
2023/03/12 03:57:41;;;;;;;9.75;3.00;;;;;;;;;;6305336;22;20050;-87
2023/03/12 04:00:16;;;;;;;15.77;3.63;;;;;;;;;;6255290;22;20019;-89
2023/03/12 04:02:43;;;;;;;9.98;3.03;;;;;;;;;;6254873;22;20467;-89
2023/03/12 04:05:10;;;;;;;7.65;2.75;;;;;;;;;;6254604;22;20388;-88
2023/03/12 04:07:37;;;;;;;10.27;3.20;;;;;;;;;;6305340;22;20003;-88
2023/03/12 04:10:09;;;;;;;8.23;3.13;;;;;;;;;;6305859;22;20007;-87
2023/03/12 04:12:38;;;;;;;8.05;3.58;;;;;;;;;;6304563;22;20589;-87
2023/03/12 04:15:07;;;;;;;7.03;3.20;;;;;;;;;;6280858;22;20014;-87
2023/03/12 04:17:36;;;;;;;5.60;3.30;;;;;;;;;;6250955;22;20075;-88
2023/03/12 04:20:06;;;;;;;6.80;2.90;;;;;;;;;;6252286;22;20011;-89
2023/03/12 04:22:32;;;;;;;6.35;3.40;;;;;;;;;;6254378;22;20251;-88
2023/03/12 04:24:58;;;;;;;8.05;3.17;;;;;;;;;;6303211;22;20007;-89
2023/03/12 04:27:27;;;;;;;6.97;3.35;;;;;;;;;;6252720;22;20014;-88
2023/03/12 04:29:55;;;;;;;6.38;2.90;;;;;;;;;;6307210;22;20010;-89
2023/03/12 04:32:27;;;;;;;5.35;2.75;;;;;;;;;;6305440;22;20007;-89
2023/03/12 04:34:53;;;;;;;6.65;3.15;;;;;;;;;;6255446;22;20727;-88
2023/03/12 04:37:32;;;;;;;7.60;3.20;;;;;;;;;;6254332;22;20018;-87
2023/03/12 04:40:01;;;;;;;13.32;3.42;;;;;;;;;;6257197;22;20007;-88
2023/03/12 04:42:31;;;;;;;8.32;2.75;;;;;;;;;;6253531;22;20011;-88
2023/03/12 04:44:59;;;;;;;8.23;3.28;;;;;;;;;;6254962;22;20077;-88
2023/03/12 04:47:25;;;;;;;5.00;3.08;;;;;;;;;;6280517;22;20445;-88
2023/03/12 04:49:57;;;;;;;6.68;3.30;;;;;;;;;;6306363;22;20480;-88
2023/03/12 04:52:23;;;;;;;7.72;3.58;;;;;;;;;;6254638;22;20011;-89
2023/03/12 04:55:12;;;;;;;9.80;5.15;;;;;;;;;;6306343;22;20441;-89
2023/03/12 04:57:39;;;;;;;7.03;3.75;;;;;;;;;;6278582;22;20113;-89
2023/03/12 05:00:14;;;;;;;9.07;3.80;;;;;;;;;;6307157;22;20409;-88
2023/03/12 05:02:41;;;;;;;7.10;3.35;;;;;;;;;;6254956;22;20007;-87
2023/03/12 05:05:11;;;;;;;10.20;3.58;;;;;;;;;;6305396;22;20064;-88
2023/03/12 05:07:42;;;;;;;10.55;3.25;;;;;;;;;;6302430;22;20014;-88
2023/03/12 05:10:09;;;;;;;6.00;3.33;;;;;;;;;;6254979;22;20008;-88
2023/03/12 05:12:35;;;;;;;9.05;3.67;;;;;;;;;;6302223;22;20010;-88
2023/03/12 05:15:03;;;;;;;12.35;3.40;;;;;;;;;;6304750;22;20004;-88
2023/03/12 05:17:30;;;;;;;7.97;3.45;;;;;;;;;;6278866;22;20563;-88
2023/03/12 05:19:56;;;;;;;8.15;3.17;;;;;;;;;;6304589;22;20022;-88
2023/03/12 05:22:22;;;;;;;8.05;3.83;;;;;;;;;;6253038;22;20031;-88
2023/03/12 05:24:50;;;;;;;9.52;3.38;;;;;;;;;;6305517;22;20004;-88
2023/03/12 05:27:16;;;;;;;10.82;3.78;;;;;;;;;;6255396;22;20003;-88
2023/03/12 05:29:48;;;;;;;10.15;3.58;;;;;;;;;;6305741;22;19999;-88
2023/03/12 05:32:24;;;;;;;7.50;3.25;;;;;;;;;;6308331;22;20027;-88
2023/03/12 05:34:51;;;;;;;12.48;4.05;;;;;;;;;;6257143;22;20049;-88
2023/03/12 05:37:21;;;;;;;8.35;3.88;;;;;;;;;;6303825;22;20003;-88
2023/03/12 05:39:47;;;;;;;6.32;2.97;;;;;;;;;;6254810;22;20012;-88
2023/03/12 05:42:13;;;;;;;8.95;3.72;;;;;;;;;;6254037;22;20011;-88
2023/03/12 05:44:49;;;;;;;9.38;3.53;;;;;;;;;;6305522;22;20015;-88
2023/03/12 05:47:15;;;;;;;12.05;3.85;;;;;;;;;;6308783;22;19999;-88
2023/03/12 05:49:46;;;;;;;9.43;3.63;;;;;;;;;;6256379;22;20011;-88
2023/03/12 05:52:12;;;;;;;10.57;3.50;;;;;;;;;;6255326;22;20699;-88
2023/03/12 05:54:41;;;;;;;17.30;3.83;;;;;;;;;;6304882;22;20007;-88
2023/03/12 05:57:13;;;;;;;9.27;3.72;;;;;;;;;;6305286;22;20054;-89
2023/03/12 05:59:39;;;;;;;8.73;3.67;;;;;;;;;;6253715;22;20011;-87
2023/03/12 06:02:05;;;;;;;13.63;3.72;;;;;;;;;;6305230;22;20007;-88
2023/03/12 06:04:35;;;;;;;7.93;3.83;;;;;;;;;;6306484;22;20011;-88
2023/03/12 06:07:01;;;;;;;6.85;3.47;;;;;;;;;;6305657;22;20007;-88
2023/03/12 06:09:27;;;;;;;7.57;3.40;;;;;;;;;;6305086;22;20007;-87
2023/03/12 06:12:03;;;;;;;7.85;3.47;;;;;;;;;;6254395;22;20007;-88
2023/03/12 06:14:35;;;;;;;15.95;3.50;;;;;;;;;;6254960;22;20094;-88
2023/03/12 06:17:02;;;;;;;11.68;4.43;;;;;;;;;;6306184;22;20018;-88
2023/03/12 06:19:33;;;;;;;11.98;4.13;;;;;;;;;;6255238;22;20326;-88
2023/03/12 06:22:00;;;;;;;17.52;3.80;;;;;;;;;;6256663;22;20423;-88
2023/03/12 06:24:30;;;;;;;10.18;4.05;;;;;;;;;;6307078;22;20004;-88
2023/03/12 06:27:00;;;;;;;8.63;4.00;;;;;;;;;;6281875;22;20007;-89
2023/03/12 06:29:26;;;;;;;8.25;4.38;;;;;;;;;;6305693;22;20007;-88
2023/03/12 06:31:52;;;;;;;10.38;4.05;;;;;;;;;;6256297;22;20496;-88
2023/03/12 06:34:21;;;;;;;16.17;4.45;;;;;;;;;;6303820;22;20337;-88
2023/03/12 06:36:51;;;;;;;9.60;4.00;;;;;;;;;;6304203;22;20011;-88
2023/03/12 06:39:26;;;;;;;9.85;4.00;;;;;;;;;;6253361;22;20031;-88
2023/03/12 06:41:52;;;;;;;10.88;4.97;;;;;;;;;;6254882;22;20012;-88
2023/03/12 06:44:18;;;;;;;12.15;4.00;;;;;;;;;;6249841;22;20014;-88
2023/03/12 06:46:46;;;;;;;11.13;4.97;;;;;;;;;;6253052;22;20094;-88
2023/03/12 06:49:19;;;;;;;7.70;4.43;;;;;;;;;;6254075;22;20007;-88
2023/03/12 06:51:48;;;;;;;16.83;5.25;;;;;;;;;;6305439;22;20415;-88
2023/03/12 06:54:19;;;;;;;9.57;4.03;;;;;;;;;;6305785;22;20030;-88
2023/03/12 07:09:49;;;;;;;12.65;5.70;;;;;;;;;;5912944;22;8344379;-88
2023/03/12 07:12:22;;;;;;;12.75;5.70;;;;;;;;;;6223520;23;20014;-87
2023/03/12 07:14:57;;;;;;;10.82;5.07;;;;;;;;;;6201418;23;20011;-88
2023/03/12 07:17:25;;;;;;;11.82;4.70;;;;;;;;;;6202808;23;20394;-89
2023/03/12 07:19:53;;;;;;;11.45;5.40;;;;;;;;;;6253896;23;20007;-88
2023/03/12 07:22:25;;;;;;;12.82;5.18;;;;;;;;;;6204595;23;20012;-88
2023/03/12 07:24:58;;;;;;;16.92;5.20;;;;;;;;;;6230223;23;20008;-89
2023/03/12 07:27:35;;;;;;;14.10;4.05;;;;;;;;;;6227980;23;20008;-88
2023/03/12 07:30:04;;;;;;;12.02;5.15;;;;;;;;;;6230178;23;20120;-87
2023/03/12 07:32:35;;;;;;;17.63;5.40;;;;;;;;;;6201964;23;20019;-88
2023/03/12 07:35:05;;;;;;;10.88;5.95;;;;;;;;;;6203311;23;20074;-88
2023/03/12 07:37:34;;;;;;;13.45;4.78;;;;;;;;;;6204314;23;20015;-88
2023/03/12 07:40:09;;;;;;;7.32;4.30;;;;;;;;;;6229493;23;20008;-88
2023/03/12 07:42:38;;;;;;;20.58;6.97;;;;;;;;;;6253387;23;20004;-88
2023/03/12 07:45:13;;;;;;;14.13;6.25;;;;;;;;;;6229271;23;20004;-88
2023/03/12 07:47:40;;;;;;;16.73;6.38;;;;;;;;;;6227107;23;20027;-88
2023/03/12 07:50:06;;;;;;;16.30;6.82;;;;;;;;;;6228169;23;20015;-87
2023/03/12 07:52:37;;;;;;;16.60;6.50;;;;;;;;;;6231056;23;20362;-90
2023/03/12 07:55:24;;;;;;;5.20;2.83;;;;;;;;;;6231977;23;20012;-89
2023/03/12 07:58:15;;;;;;;20.55;6.28;;;;;;;;;;6232856;23;20012;-89
2023/03/12 08:00:44;;;;;;;17.20;7.03;;;;;;;;;;6262535;23;20067;-88
2023/03/12 08:03:45;;;;;;;9.75;4.70;;;;;;;;;;6263639;23;20060;-89
2023/03/12 08:06:41;;;;;;;16.70;5.18;;;;;;;;;;6243272;23;20047;-89
2023/03/12 08:09:23;;;;;;;12.18;6.35;;;;;;;;;;6210590;22;20031;-90
2023/03/12 08:12:28;;;;;;;15.45;5.63;;;;;;;;;;6225203;23;20000;-89
2023/03/12 08:15:16;;;;;;;15.13;6.28;;;;;;;;;;6089482;23;20512;-89
2023/03/12 08:17:43;;;;;;;14.80;6.60;;;;;;;;;;6122397;23;20091;-87
2023/03/12 08:20:12;;;;;;;17.38;6.97;;;;;;;;;;6221793;23;20448;-89
2023/03/12 08:22:40;;;;;;;8.98;5.70;;;;;;;;;;6221019;23;20004;-87
2023/03/12 08:25:07;;;;;;;6.55;3.22;;;;;;;;;;6223690;23;20018;-86
2023/03/12 08:27:51;;;;;;;18.00;6.82;;;;;;;;;;6222564;23;20031;-87
2023/03/12 08:30:18;;;;;;;9.60;6.50;;;;;;;;;;6222028;23;20346;-87
2023/03/12 08:32:44;;;;;;;14.80;6.43;;;;;;;;;;6223046;23;20434;-87
2023/03/12 08:35:19;;;;;;;16.83;6.43;;;;;;;;;;6250422;23;20030;-87
2023/03/12 08:38:03;;;;;;;13.77;6.50;;;;;;;;;;6224490;23;20075;-87
2023/03/12 08:40:40;;;;;;;;;;;;;;;;;;;;;
2023/03/12 08:43:12;;;;;;;14.48;6.95;;;;;;;;;;6250104;23;20027;-87
2023/03/12 08:45:38;;;;;;;14.35;6.82;;;;;;;;;;6197099;23;20008;-88
2023/03/12 08:48:05;;;;;;;11.52;6.95;;;;;;;;;;6221336;23;20053;-88
2023/03/12 08:50:32;;;;;;;11.57;6.22;;;;;;;;;;6219014;23;20012;-88
2023/03/12 08:53:01;;;;;;;14.70;6.68;;;;;;;;;;6219238;23;20259;-88
2023/03/12 08:55:27;;;;;;;17.65;7.35;;;;;;;;;;6197128;23;20012;-88
2023/03/12 08:58:04;;;;;;;15.50;6.30;;;;;;;;;;6246247;23;20016;-87
2023/03/12 09:00:30;;;;;;;11.60;4.82;;;;;;;;;;6197684;23;20008;-87
2023/03/12 09:02:57;;;;;;;18.88;6.55;;;;;;;;;;6193957;23;20007;-87
2023/03/12 09:05:24;;;;;;;14.60;6.93;;;;;;;;;;6194077;23;20031;-85
2023/03/12 09:07:50;;;;;;;8.88;5.55;;;;;;;;;;6193952;23;20008;-87
2023/03/12 09:10:17;;;;;;;15.60;6.85;;;;;;;;;;6194962;22;20051;-88
2023/03/12 09:12:45;;;;;;;11.35;6.32;;;;;;;;;;6221481;23;20004;-88
2023/03/12 09:15:14;;;;;;;10.55;5.82;;;;;;;;;;6196430;23;20179;-87
2023/03/12 09:17:41;;;;;;;15.55;6.53;;;;;;;;;;6195033;23;20019;-88
2023/03/12 09:20:08;;;;;;;9.32;5.88;;;;;;;;;;6195079;23;20330;-88
2023/03/12 09:22:37;;;;;;;16.45;6.80;;;;;;;;;;6217796;23;20004;-88
2023/03/12 09:25:12;;;;;;;11.52;6.07;;;;;;;;;;6244077;23;20007;-87
2023/03/12 09:27:45;;;;;;;10.80;7.07;;;;;;;;;;6218869;23;20012;-88
2023/03/12 09:30:14;;;;;;;19.88;6.72;;;;;;;;;;6194206;23;20043;-88
2023/03/12 09:32:49;;;;;;;6.65;4.00;;;;;;;;;;6221024;23;20020;-88
2023/03/12 09:35:18;;;;;;;;;;;;;;;;;;6220274;23;20032;-87
2023/03/12 09:37:49;;;;;;;8.45;4.63;;;;;;;;;;6221865;23;19951;-88
2023/03/12 09:40:17;;;;;;;10.43;6.90;;;;;;;;;;6220355;23;20018;-88
2023/03/12 09:42:47;;;;;;;16.00;6.90;;;;;;;;;;6218788;23;20001;-88
2023/03/12 09:45:20;;;;;;;12.10;6.97;;;;;;;;;;6218800;23;20066;-89
2023/03/12 09:47:48;;;;;;;13.90;6.85;;;;;;;;;;6221375;23;20015;-88
2023/03/12 09:50:21;;;;;;;11.60;6.63;;;;;;;;;;6217663;23;20008;-88
2023/03/12 09:53:24;;;;;;;13.45;8.05;;;;;;;;;;6219003;23;20008;-88
2023/03/12 09:55:54;;;;;;;12.55;6.85;;;;;;;;;;6071464;23;20002;-88
2023/03/12 09:58:46;;;;;;;13.85;7.45;;;;;;;;;;6193944;23;20011;-88
2023/03/12 10:01:37;;;;;;;10.30;4.50;;;;;;;;;;6217722;23;20008;-87
2023/03/12 10:04:03;;;;;;;15.40;7.82;;;;;;;;;;6219629;23;20027;-87
2023/03/12 10:06:36;;;;;;;17.00;7.57;;;;;;;;;;6218097;23;20019;-88
2023/03/12 10:09:21;;;;;;;16.05;7.22;;;;;;;;;;6219029;22;20019;-88
2023/03/12 10:15:07;;;;;;;16.10;7.70;;;;;;;;;;6231980;23;20019;-88
2023/03/12 10:17:52;;;;;;;16.42;6.97;;;;;;;;;;6218762;23;20007;-88
2023/03/12 10:20:31;;;;;;;9.60;6.00;;;;;;;;;;6220919;23;20004;-88
2023/03/12 10:23:15;;;;;;;9.25;5.78;;;;;;;;;;6220047;23;20004;-88
2023/03/12 10:26:00;;;;;;;9.25;3.50;;;;;;;;;;6221527;23;20004;-88
2023/03/12 10:31:51;;;;;;;11.20;5.88;;;;;;;;;;6229498;23;20338;-93
2023/03/12 10:34:40;;;;;;;9.27;5.85;;;;;;;;;;6219094;23;20163;-87
2023/03/12 10:37:25;;;;;;;9.05;5.18;;;;;;;;;;6217214;23;20008;-87
2023/03/12 10:39:54;;;;;;;8.20;4.68;;;;;;;;;;6218347;23;20004;-87
2023/03/12 10:42:25;;;;;;;9.73;6.00;;;;;;;;;;6216488;23;20412;-88
2023/03/12 10:44:53;;;;;;;5.35;3.40;;;;;;;;;;6217400;23;20008;-88
2023/03/12 10:47:22;;;;;;;9.02;5.95;;;;;;;;;;6217385;23;20031;-88
2023/03/12 10:49:50;;;;;;;10.82;6.65;;;;;;;;;;6217404;23;20439;-88
2023/03/12 10:52:28;;;;;;;6.03;3.72;;;;;;;;;;6193060;23;20460;-89
2023/03/12 10:54:55;;;;;;;12.63;7.05;;;;;;;;;;6218471;23;20064;-95
2023/03/12 10:57:40;;;;;;;7.53;3.35;;;;;;;;;;6196250;23;20023;-91
2023/03/12 11:08:06;;;;;;;;;;;;;;;;;;6244766;22;20036;-89
2023/03/12 11:11:01;;;;;;;11.68;7.05;;;;;;;;;;6217571;23;19899;-88
2023/03/12 11:13:27;;;;;;;11.10;4.45;;;;;;;;;;6218701;23;20015;-88
2023/03/12 11:15:54;;;;;;;15.68;9.10;;;;;;;;;;6218923;23;20019;-89
2023/03/12 11:18:26;;;;;;;14.00;6.30;;;;;;;;;;6245767;23;20009;-90
2023/03/12 11:20:56;;;;;;;20.15;8.95;;;;;;;;;;6217919;23;20027;-89
2023/03/12 11:23:27;;;;;;;22.10;9.23;;;;;;;;;;6190068;23;20447;-89
2023/03/12 11:25:56;;;;;;;11.63;5.93;;;;;;;;;;6216982;23;20041;-92
2023/03/12 11:28:34;;;;;;;21.52;8.88;;;;;;;;;;6216836;23;20015;-93
2023/03/12 11:31:14;;;;;;;10.02;6.55;;;;;;;;;;6218838;23;20012;-89
2023/03/12 11:33:40;;;;;;;13.93;8.32;;;;;;;;;;6185688;23;20032;-89
2023/03/12 11:36:28;;;;;;;14.52;8.50;;;;;;;;;;6195850;23;20091;-88
2023/03/12 11:39:19;;;;;;;9.65;5.13;;;;;;;;;;6221059;23;20087;-95
2023/03/12 11:42:20;;;;;;;16.52;8.90;;;;;;;;;;6219509;23;20004;-88
2023/03/12 11:45:05;;;;;;;10.27;5.53;;;;;;;;;;6087697;23;20064;-91
2023/03/12 11:50:50;;;;;;;16.77;8.57;;;;;;;;;;6209110;23;20012;-94
2023/03/12 11:54:04;;;;;;;12.43;6.63;;;;;;;;;;6191595;23;20050;-95
2023/03/12 11:56:43;;;;;;;18.83;8.35;;;;;;;;;;6068481;23;20022;-96
2023/03/12 11:59:19;;;;;;;17.33;8.82;;;;;;;;;;6043362;23;20014;-95
2023/03/12 12:02:03;;;;;;;25.15;8.30;;;;;;;;;;6043740;23;20098;-95
2023/03/12 12:04:48;;;;;;;18.55;7.68;;;;;;;;;;6160224;23;20395;-91
2023/03/12 12:10:39;;;;;;;11.63;7.43;;;;;;;;;;6201541;23;20019;-92
2023/03/12 12:13:28;;;;;;;10.68;5.43;;;;;;;;;;6190163;23;20439;-95
2023/03/12 12:16:05;;;;;;;13.30;7.07;;;;;;;;;;6190499;23;20031;-94
2023/03/12 12:18:55;;;;;;;11.73;6.85;;;;;;;;;;6192605;23;20005;-94
2023/03/12 12:21:28;;;;;;;14.98;6.88;;;;;;;;;;6191797;23;20004;-92
2023/03/12 12:23:54;;;;;;;9.52;5.47;;;;;;;;;;6190465;23;20013;-90
2023/03/12 12:26:47;;;;;;;12.82;5.03;;;;;;;;;;6189889;23;20320;-91
2023/03/12 12:29:37;;;;;;;12.75;5.90;;;;;;;;;;6189492;23;20043;-90
2023/03/12 12:32:07;;;;;;;7.78;5.18;;;;;;;;;;6187593;23;20009;-92
2023/03/12 12:34:49;;;;;;;14.27;7.32;;;;;;;;;;6189450;23;20435;-93
2023/03/12 12:37:34;;;;;;;17.13;7.15;;;;;;;;;;6186734;23;20012;-88
2023/03/12 12:40:10;;;;;;;11.60;6.35;;;;;;;;;;6188296;23;20009;-89
2023/03/12 12:42:43;;;;;;;12.93;7.35;;;;;;;;;;6186807;23;20005;-89
2023/03/12 12:45:12;;;;;;;14.27;7.68;;;;;;;;;;6161155;23;20478;-88
2023/03/12 12:47:50;;;;;;;13.00;6.57;;;;;;;;;;6165607;23;20020;-93
2023/03/12 12:50:19;;;;;;;13.45;7.25;;;;;;;;;;6193841;23;20494;-91
2023/03/12 12:52:49;;;;;;;13.57;7.53;;;;;;;;;;6192246;23;20008;-90
2023/03/12 12:55:24;;;;;;;9.38;5.10;;;;;;;;;;6187065;23;20004;-88
2023/03/12 12:57:59;;;;;;;15.48;7.93;;;;;;;;;;6187890;23;20009;-89
2023/03/12 13:00:34;;;;;;;12.13;6.43;;;;;;;;;;6189381;23;20386;-90
2023/03/12 13:03:01;;;;;;;15.63;7.35;;;;;;;;;;6188514;23;20020;-90
2023/03/12 13:05:36;;;;;;;13.93;7.05;;;;;;;;;;6166511;23;20462;-90
2023/03/12 13:08:03;;;;;;;;;;;;;;;;;;6185954;23;20084;-89
2023/03/12 13:10:39;;;;;;;19.30;7.63;;;;;;;;;;6185916;23;19904;-89
2023/03/12 13:13:23;;;;;;;24.13;8.20;;;;;;;;;;6187192;23;20233;-89
2023/03/12 13:15:49;;;;;;;11.88;4.90;;;;;;;;;;6185917;23;20016;-89
2023/03/12 13:18:30;;;;;;;19.08;8.35;;;;;;;;;;6177413;23;20024;-89
2023/03/12 13:21:06;;;;;;;21.25;5.75;;;;;;;;;;6190450;23;20084;-90
2023/03/12 13:23:44;;;;;;;17.10;6.20;;;;;;;;;;6188262;23;20005;-90
2023/03/12 13:26:23;;;;;;;13.40;6.78;;;;;;;;;;6186410;23;20009;-89
2023/03/12 13:28:55;;;;;;;19.73;7.65;;;;;;;;;;6186852;23;20008;-89
2023/03/12 13:31:29;;;;;;;16.23;7.78;;;;;;;;;;6187825;23;20008;-90
2023/03/12 13:33:58;;;;;;;16.40;5.75;;;;;;;;;;6186896;23;20036;-89
2023/03/12 13:36:27;;;;;;;32.35;9.30;;;;;;;;;;6187602;23;20043;-90
2023/03/12 13:39:05;;;;;;;18.25;7.57;;;;;;;;;;6184951;23;20036;-89
2023/03/12 13:41:39;;;;;;;19.23;6.10;;;;;;;;;;6168793;23;20005;-89
2023/03/12 13:44:24;;;;;;;28.45;8.43;;;;;;;;;;6184014;23;20007;-89
2023/03/12 13:47:05;;;;;;;31.73;7.40;;;;;;;;;;6185404;23;20001;-90
2023/03/12 13:49:45;;;;;;;23.17;8.40;;;;;;;;;;6186878;23;20435;-89
2023/03/12 13:52:16;;;;;;;18.23;5.78;;;;;;;;;;6188814;23;20009;-90
2023/03/12 13:54:47;;;;;;;23.40;7.07;;;;;;;;;;6185407;23;20338;-88
2023/03/12 13:57:32;;;;;;;29.83;7.80;;;;;;;;;;6187093;23;20033;-90
2023/03/12 13:59:59;;;;;;;13.50;3.92;;;;;;;;;;6187659;23;20400;-89
2023/03/12 14:02:30;;;;;;;25.83;5.93;;;;;;;;;;6163724;23;20057;-90
2023/03/12 14:05:05;;;;;;;16.85;4.68;;;;;;;;;;6188460;23;20009;-90
2023/03/12 14:07:39;;;;;;;28.10;5.88;;;;;;;;;;6187269;23;20005;-90
2023/03/12 14:10:35;;;;;;;19.23;5.55;;;;;;;;;;6187039;23;20434;-89
2023/03/12 14:13:20;;;;;;;34.70;3.72;;;;;;;;;;6160364;23;20040;-90
2023/03/12 14:15:55;;;;;;;26.88;4.63;;;;;;;;;;6187892;23;20013;-93
2023/03/12 14:18:35;;;;;;;;;;;;;;;;;;;;;
2023/03/12 14:21:08;;;;;;;33.97;6.03;;;;;;;;;;6185731;23;20081;-90
2023/03/12 14:23:36;;;;;;;27.45;4.72;;;;;;;;;;6184666;23;20012;-93
2023/03/12 14:26:19;;;;;;;37.28;5.82;;;;;;;;;;6187967;23;20005;-92
2023/03/12 14:28:57;;;;;;;26.13;4.93;;;;;;;;;;6194555;23;20004;-94
2023/03/12 14:31:24;;;;;;;34.72;5.38;;;;;;;;;;6186939;23;20028;-91
2023/03/12 14:34:19;;;;;;;23.85;4.50;;;;;;;;;;6185094;23;20005;-93
2023/03/12 14:37:15;;;;;;;;;;;;;;;;;;;;;
2023/03/12 14:39:54;;;;;;;26.33;4.88;;;;;;;;;;6174512;23;20627;-88
2023/03/12 14:42:24;;;;;;;28.10;4.15;;;;;;;;;;6191357;23;20016;-91
2023/03/12 14:45:25;;;;;;;30.88;4.72;;;;;;;;;;6164730;23;20016;-92
2023/03/12 14:52:00;;;;;;;28.05;5.72;;;;;;;;;;6185783;23;20009;-95
2023/03/12 14:54:27;;;;;;;27.90;4.55;;;;;;;;;;6180084;23;20012;-93
2023/03/12 15:00:18;;;;;;;18.15;4.25;;;;;;;;;;6155910;23;20105;-94
2023/03/12 15:02:49;;;;;;;31.13;5.00;;;;;;;;;;6183506;23;20004;-92
2023/03/12 15:08:29;;;;;;;29.60;4.88;;;;;;;;;;6187025;23;20183;-94
2023/03/12 15:11:04;;;;;;;30.95;5.05;;;;;;;;;;6187367;23;20032;-92
2023/03/12 15:13:30;;;;;;;27.80;5.33;;;;;;;;;;6185827;23;20133;-93
2023/03/12 15:15:57;;;;;;;25.67;6.43;;;;;;;;;;6162420;23;20928;-91
2023/03/12 15:18:54;;;;;;;22.13;4.70;;;;;;;;;;6162970;23;20020;-95
2023/03/12 15:24:49;;;;;;;21.10;4.83;;;;;;;;;;6199939;23;20013;-96
2023/03/12 15:28:37;;;;;;;;;;;;;;;;;;;;;
2023/03/12 15:41:02;;;;;;;;;;;;;;;;;;;;;
2023/03/12 15:44:15;;;;;;;;;;;;;;;;;;;;;
2023/03/12 15:47:50;;;;;;;27.00;4.97;;;;;;;;;;5926601;23;20029;-95
2023/03/12 15:50:01;;;;;;;42.63;5.85;;;;;;;;;;6059313;23;20406;-95
2023/03/12 15:52:33;;;;;;;23.02;5.13;;;;;;;;;;6033847;23;20015;-95
2023/03/12 18:41:16;;;;;;;36.83;4.93;;;;;;;;;;6275676;22;20117;-94
2023/03/12 18:43:44;;;;;;;21.92;4.10;;;;;;;;;;6269532;22;20102;-93
2023/03/12 18:46:13;;;;;;;48.30;6.05;;;;;;;;;;6251151;22;20016;-92
2023/03/12 18:48:39;;;;;;;54.28;7.43;;;;;;;;;;6250064;22;20003;-94
2023/03/12 18:51:24;;;;;;;33.17;5.50;;;;;;;;;;6226023;22;20032;-94
2023/03/12 18:53:53;;;;;;;43.10;6.07;;;;;;;;;;6251530;22;20011;-96
2023/03/12 18:56:26;;;;;;;46.70;5.75;;;;;;;;;;6252418;22;20008;-94
2023/03/12 18:59:02;;;;;;;30.75;4.90;;;;;;;;;;6248969;22;20004;-94
2023/03/12 19:01:43;;;;;;;37.28;6.93;;;;;;;;;;6250285;22;20053;-94